createdAt,value
2022-08-09T00:00:19.907Z,18.30
2022-08-09T00:02:49.340Z,18.30
2022-08-09T00:06:18.878Z,18.30
2022-08-09T00:08:11.325Z,18.20
2022-08-09T00:10:40.729Z,18.20
2022-08-09T00:13:16.681Z,18.20
2022-08-09T00:15:59.619Z,18.10
2022-08-09T00:18:34.856Z,18.20
2022-08-09T00:21:05.199Z,18.20
2022-08-09T00:23:56.056Z,18.20
2022-08-09T00:26:29.518Z,18.10
2022-08-09T00:29:00.001Z,18.10
2022-08-09T00:31:58.238Z,18.10
2022-08-09T00:34:14.041Z,18.10
2022-08-09T00:36:42.133Z,18.00
2022-08-09T00:39:16.874Z,18.00
2022-08-09T00:44:16.792Z,18.00
2022-08-09T00:44:47.020Z,17.90
2022-08-09T00:47:15.681Z,18.00
2022-08-09T00:49:52.441Z,17.90
2022-08-09T00:52:28.128Z,17.90
2022-08-09T00:55:00.279Z,17.80
2022-08-09T00:57:34.813Z,17.80
2022-08-09T01:00:21.067Z,17.80
2022-08-09T01:03:09.597Z,17.80
2022-08-09T01:05:54.485Z,17.80
2022-08-09T01:08:34.934Z,17.80
2022-08-09T01:11:08.577Z,17.80
2022-08-09T01:13:58.987Z,17.80
2022-08-09T01:16:47.318Z,17.70
2022-08-09T01:19:42.742Z,17.80
2022-08-09T01:22:51.271Z,17.70
2022-08-09T01:25:37.368Z,17.60
2022-08-09T01:28:11.410Z,17.40
2022-08-09T01:30:51.688Z,17.40
2022-08-09T01:33:22.501Z,17.30
2022-08-09T01:35:53.699Z,17.30
2022-08-09T01:38:26.455Z,17.20
2022-08-09T01:41:08.036Z,17.00
2022-08-09T01:43:50.763Z,16.90
2022-08-09T01:46:27.961Z,16.90
2022-08-09T01:48:59.763Z,16.90
2022-08-09T01:51:32.255Z,16.80
2022-08-09T01:54:02.674Z,16.80
2022-08-09T01:56:32.497Z,16.90
2022-08-09T01:59:03.948Z,16.90
2022-08-09T02:02:00.054Z,16.90
2022-08-09T02:04:22.403Z,16.90
2022-08-09T02:07:15.307Z,16.80
2022-08-09T02:10:08.754Z,16.80
2022-08-09T02:12:37.761Z,16.80
2022-08-09T02:15:08.493Z,16.80
2022-08-09T02:18:01.733Z,16.80
2022-08-09T02:20:33.924Z,16.70
2022-08-09T02:23:10.151Z,16.80
2022-08-09T02:25:42.253Z,16.80
2022-08-09T02:28:17.737Z,16.80
2022-08-09T02:31:10.983Z,16.80
2022-08-09T02:34:06.560Z,16.70
2022-08-09T02:36:37.756Z,16.80
2022-08-09T02:39:19.783Z,16.90
2022-08-09T02:41:56.665Z,16.90
2022-08-09T02:44:31.479Z,16.90
2022-08-09T02:47:04.077Z,17.00
2022-08-09T02:49:38.702Z,17.00
2022-08-09T02:52:12.548Z,17.00
2022-08-09T02:54:53.948Z,17.10
2022-08-09T02:57:23.968Z,17.10
2022-08-09T03:00:20.887Z,17.10
2022-08-09T03:02:58.006Z,17.00
2022-08-09T03:05:26.643Z,17.10
2022-08-09T03:07:55.700Z,17.00
2022-08-09T03:10:25.088Z,16.90
2022-08-09T03:12:53.362Z,16.90
2022-08-09T03:15:22.928Z,17.00
2022-08-09T03:17:53.852Z,17.00
2022-08-09T03:20:29.409Z,17.00
2022-08-09T03:23:00.415Z,17.00
2022-08-09T03:25:57.963Z,16.90
2022-08-09T03:28:31.160Z,16.90
2022-08-09T03:30:59.391Z,16.90
2022-08-09T03:33:54.153Z,16.90
2022-08-09T03:36:19.557Z,17.00
2022-08-09T03:38:48.053Z,17.00
2022-08-09T03:41:18.337Z,17.00
2022-08-09T03:44:03.801Z,16.90
2022-08-09T03:46:35.102Z,16.80
2022-08-09T03:49:08.804Z,16.80
2022-08-09T03:51:55.295Z,16.70
2022-08-09T03:54:29.222Z,16.70
2022-08-09T03:56:58.452Z,16.70
2022-08-09T03:59:32.963Z,16.70
2022-08-09T04:02:14.344Z,16.70
2022-08-09T04:04:45.679Z,16.70
2022-08-09T04:07:14.491Z,16.60
2022-08-09T04:09:47.884Z,16.60
2022-08-09T04:12:32.464Z,16.70
2022-08-09T04:15:01.679Z,16.60
2022-08-09T04:17:39.542Z,16.70
2022-08-09T04:20:11.303Z,16.60
2022-08-09T04:22:41.263Z,16.60
2022-08-09T04:25:11.601Z,16.60
2022-08-09T04:27:46.643Z,16.40
2022-08-09T04:30:20.795Z,16.30
2022-08-09T04:32:50.985Z,16.20
2022-08-09T04:35:21.837Z,16.20
2022-08-09T04:37:49.798Z,16.20
2022-08-09T04:40:19.717Z,16.20
2022-08-09T04:43:03.782Z,16.30
2022-08-09T04:45:31.132Z,16.40
2022-08-09T04:48:09.933Z,16.40
2022-08-09T04:50:37.975Z,16.40
2022-08-09T04:53:13.132Z,16.40
2022-08-09T04:55:52.628Z,16.50
2022-08-09T04:58:29.814Z,16.50
2022-08-09T05:00:59.400Z,16.60
2022-08-09T05:03:40.550Z,16.50
2022-08-09T05:06:21.749Z,16.50
2022-08-09T05:09:00.849Z,16.60
2022-08-09T05:11:32.184Z,16.60
2022-08-09T05:14:05.820Z,16.60
2022-08-09T05:16:58.484Z,16.60
2022-08-09T05:19:25.674Z,16.60
2022-08-09T05:21:55.605Z,16.60
2022-08-09T05:24:24.449Z,16.50
2022-08-09T05:26:52.385Z,16.60
2022-08-09T05:29:21.571Z,16.60
2022-08-09T05:31:56.775Z,16.60
2022-08-09T05:34:31.115Z,16.60
2022-08-09T05:37:11.434Z,16.60
2022-08-09T05:39:42.515Z,16.70
2022-08-09T05:42:20.579Z,16.70
2022-08-09T05:44:52.679Z,16.80
2022-08-09T05:47:24.148Z,16.80
2022-08-09T05:50:26.883Z,16.90
2022-08-09T05:52:41.745Z,17.00
2022-08-09T05:55:18.137Z,17.00
2022-08-09T05:57:51.356Z,17.10
2022-08-09T06:00:23.951Z,17.20
2022-08-09T06:02:54.110Z,17.30
2022-08-09T06:05:50.257Z,17.40
2022-08-09T06:08:11.448Z,17.40
2022-08-09T06:10:38.829Z,17.50
2022-08-09T06:13:12.088Z,17.40
2022-08-09T06:15:46.950Z,17.50
2022-08-09T06:18:15.707Z,17.60
2022-08-09T06:20:43.037Z,17.70
2022-08-09T06:23:17.073Z,17.80
2022-08-09T06:25:44.210Z,17.80
2022-08-09T06:28:15.884Z,17.90
2022-08-09T06:30:43.336Z,17.90
2022-08-09T06:33:30.559Z,18.00
2022-08-09T06:35:58.352Z,18.00
2022-08-09T06:38:37.199Z,18.10
2022-08-09T06:41:09.375Z,18.20
2022-08-09T06:43:46.539Z,18.20
2022-08-09T06:46:39.197Z,18.30
2022-08-09T06:49:01.401Z,18.40
2022-08-09T06:51:28.397Z,18.50
2022-08-09T06:53:55.831Z,18.50
2022-08-09T06:56:30.809Z,18.60
2022-08-09T07:00:49.735Z,18.60
2022-08-09T07:01:54.461Z,18.60
2022-08-09T07:04:25.189Z,18.60
2022-08-09T07:07:00.432Z,18.70
2022-08-09T07:09:55.984Z,18.70
2022-08-09T07:12:17.879Z,18.80
2022-08-09T07:14:51.066Z,19.00
2022-08-09T07:17:21.949Z,19.30
2022-08-09T07:19:55.180Z,19.60
2022-08-09T07:22:34.461Z,19.70
2022-08-09T07:25:05.106Z,20.00
2022-08-09T07:27:34.473Z,20.20
2022-08-09T07:30:13.447Z,20.40
2022-08-09T07:32:41.731Z,20.90
2022-08-09T07:35:12.007Z,21.20
2022-08-09T07:37:49.373Z,21.40
2022-08-09T07:40:20.503Z,21.30
2022-08-09T07:42:59.035Z,21.10
2022-08-09T07:45:39.342Z,21.20
2022-08-09T07:48:28.862Z,21.50
2022-08-09T07:51:09.528Z,21.70
2022-08-09T07:54:05.854Z,22.10
2022-08-09T07:56:31.295Z,22.00
2022-08-09T07:58:59.406Z,21.80
2022-08-09T08:01:34.015Z,21.70
2022-08-09T08:04:04.791Z,21.60
2022-08-09T08:06:55.629Z,21.50
2022-08-09T08:09:38.425Z,21.40
2022-08-09T08:12:24.689Z,21.60
2022-08-09T08:14:57.380Z,22.20
2022-08-09T08:17:52.155Z,22.80
2022-08-09T08:20:13.530Z,23.20
2022-08-09T08:22:41.774Z,23.70
2022-08-09T08:25:13.852Z,24.20
2022-08-09T08:27:43.001Z,24.60
2022-08-09T08:30:11.980Z,24.90
2022-08-09T08:32:41.590Z,25.10
2022-08-09T08:35:22.528Z,25.30
2022-08-09T08:38:02.188Z,25.50
2022-08-09T08:40:33.958Z,25.60
2022-08-09T08:43:13.588Z,25.80
2022-08-09T08:46:04.008Z,25.90
2022-08-09T08:48:37.985Z,25.90
2022-08-09T08:51:06.297Z,25.90
2022-08-09T08:53:37.317Z,26.20
2022-08-09T08:56:06.065Z,26.30
2022-08-09T08:58:33.593Z,26.10
2022-08-09T09:01:08.905Z,26.20
2022-08-09T09:03:47.544Z,26.00
2022-08-09T09:06:19.461Z,26.10
2022-08-09T09:08:52.427Z,26.20
2022-08-09T09:11:20.592Z,25.90
2022-08-09T09:13:56.893Z,25.70
2022-08-09T09:16:35.242Z,25.30
2022-08-09T09:19:37.714Z,25.40
2022-08-09T09:22:11.820Z,25.80
2022-08-09T09:24:51.315Z,26.10
2022-08-09T09:28:04.039Z,26.40
2022-08-09T09:33:13.953Z,27.00
2022-08-09T09:36:20.499Z,27.50
2022-08-09T09:38:56.982Z,27.70
2022-08-09T09:41:25.018Z,27.90
2022-08-09T09:44:12.185Z,27.90
2022-08-09T09:46:50.531Z,28.00
2022-08-09T09:49:32.082Z,28.10
2022-08-09T09:52:36.903Z,28.20
2022-08-09T09:55:16.547Z,28.50
2022-08-09T09:58:18.571Z,28.70
2022-08-09T10:00:58.764Z,28.90
2022-08-09T10:04:00.780Z,28.80
2022-08-09T10:06:51.961Z,29.00
2022-08-09T10:09:22.883Z,28.70
2022-08-09T10:12:14.844Z,28.70
2022-08-09T10:14:50.114Z,28.80
2022-08-09T10:17:50.853Z,29.10
2022-08-09T10:20:27.683Z,28.80
2022-08-09T10:23:20.033Z,29.10
2022-08-09T10:26:07.375Z,29.40
2022-08-09T10:28:38.205Z,29.50
2022-08-09T10:34:10.736Z,30.00
2022-08-09T10:36:42.555Z,30.00
2022-08-09T10:39:16.140Z,30.20
2022-08-09T10:41:48.052Z,30.60
2022-08-09T10:44:19.369Z,30.70
2022-08-09T10:48:12.885Z,31.00
2022-08-09T10:50:21.030Z,30.80
2022-08-09T10:53:23.021Z,30.20
2022-08-09T10:55:57.866Z,30.80
2022-08-09T10:58:32.384Z,30.60
2022-08-09T11:03:07.379Z,31.00
2022-08-09T11:04:30.834Z,30.70
2022-08-09T11:06:59.946Z,30.30
2022-08-09T11:09:47.425Z,30.00
2022-08-09T11:12:30.515Z,29.50
2022-08-09T11:15:07.425Z,29.40
2022-08-09T11:17:41.941Z,29.40
2022-08-09T11:20:22.812Z,29.40
2022-08-09T11:22:56.708Z,29.20
2022-08-09T11:25:45.414Z,28.70
2022-08-09T11:28:54.242Z,28.20
2022-08-09T11:31:43.325Z,27.90
2022-08-09T11:34:51.414Z,27.90
2022-08-09T11:37:40.575Z,27.80
2022-08-09T11:40:10.955Z,27.50
2022-08-09T11:42:48.522Z,27.30
2022-08-09T11:45:42.023Z,27.20
2022-08-09T11:48:19.473Z,27.20
2022-08-09T11:52:53.768Z,27.10
2022-08-09T11:54:21.665Z,26.90
2022-08-09T11:57:59.946Z,26.90
2022-08-09T12:00:27.326Z,26.90
2022-08-09T12:02:57.388Z,27.10
2022-08-09T12:05:39.742Z,27.20
2022-08-09T12:08:12.222Z,27.40
2022-08-09T12:10:52.963Z,27.60
2022-08-09T12:14:07.897Z,28.00
2022-08-09T12:16:40.032Z,28.30
2022-08-09T12:19:10.027Z,29.00
2022-08-09T12:21:50.521Z,29.40
2022-08-09T12:24:24.431Z,29.70
2022-08-09T12:29:13.892Z,29.70
2022-08-09T12:30:02.080Z,29.50
2022-08-09T12:32:44.206Z,29.20
2022-08-09T12:35:13.363Z,29.30
2022-08-09T12:37:50.390Z,29.40
2022-08-09T12:40:20.535Z,29.50
2022-08-09T12:42:50.505Z,29.30
2022-08-09T12:45:34.471Z,28.90
2022-08-09T12:48:07.813Z,28.70
2022-08-09T12:50:39.160Z,28.60
2022-08-09T12:53:35.111Z,28.40
2022-08-09T12:56:39.549Z,28.20
2022-08-09T12:59:16.197Z,28.00
2022-08-09T13:01:49.008Z,27.70
2022-08-09T13:04:38.195Z,27.60
2022-08-09T13:07:19.763Z,27.60
2022-08-09T13:10:02.808Z,27.60
2022-08-09T13:12:30.745Z,27.60
2022-08-09T13:15:09.674Z,27.70
2022-08-09T13:18:03.642Z,27.80
2022-08-09T13:20:37.308Z,27.90
2022-08-09T13:24:06.936Z,27.90
2022-08-09T13:26:50.244Z,27.90
2022-08-09T13:29:42.141Z,27.80
2022-08-09T13:32:14.909Z,27.70
2022-08-09T13:34:48.278Z,27.60
2022-08-09T13:37:18.322Z,27.70
2022-08-09T13:41:52.043Z,27.50
2022-08-09T13:42:55.895Z,27.60
2022-08-09T13:45:32.290Z,27.70
2022-08-09T13:48:11.086Z,27.40
2022-08-09T13:50:38.255Z,27.20
2022-08-09T13:53:07.285Z,27.20
2022-08-09T13:55:34.626Z,27.30
2022-08-09T13:58:05.232Z,27.00
2022-08-09T14:00:46.779Z,27.10
2022-08-09T14:04:02.812Z,27.10
2022-08-09T14:06:19.188Z,27.00
2022-08-09T14:08:52.998Z,27.00
2022-08-09T14:11:20.295Z,26.80
2022-08-09T14:14:24.006Z,27.00
2022-08-09T14:16:34.519Z,26.90
2022-08-09T14:19:01.673Z,26.90
2022-08-09T14:21:29.642Z,26.60
2022-08-09T14:24:05.395Z,26.40
2022-08-09T14:26:37.987Z,26.30
2022-08-09T14:29:25.803Z,26.20
2022-08-09T14:31:55.199Z,26.10
2022-08-09T14:34:32.035Z,25.90
2022-08-09T14:37:05.998Z,25.80
2022-08-09T14:39:40.529Z,25.60
2022-08-09T14:42:30.724Z,25.50
2022-08-09T14:46:40.226Z,25.50
2022-08-09T14:47:58.298Z,25.50
2022-08-09T14:50:30.589Z,25.50
2022-08-09T14:52:57.928Z,25.50
2022-08-09T14:55:25.369Z,25.60
2022-08-09T14:57:56.256Z,25.70
2022-08-09T15:00:24.899Z,25.90
2022-08-09T15:02:54.103Z,26.00
2022-08-09T15:05:25.180Z,26.30
2022-08-09T15:07:56.334Z,26.50
2022-08-09T15:10:26.825Z,26.80
2022-08-09T15:12:54.659Z,27.00
2022-08-09T15:15:22.968Z,27.20
2022-08-09T15:17:52.808Z,27.00
2022-08-09T15:21:58.458Z,26.90
2022-08-09T15:24:01.647Z,26.90
2022-08-09T15:25:58.515Z,26.90
2022-08-09T15:28:28.002Z,26.90
2022-08-09T15:31:10.320Z,26.80
2022-08-09T15:34:32.269Z,26.60
2022-08-09T15:36:30.439Z,26.30
2022-08-09T15:39:01.148Z,26.20
2022-08-09T15:41:32.173Z,26.10
2022-08-09T15:44:02.603Z,26.10
2022-08-09T15:46:33.001Z,26.00
2022-08-09T15:49:21.657Z,26.00
2022-08-09T15:52:04.510Z,26.00
2022-08-09T15:54:44.715Z,25.90
2022-08-09T15:57:18.804Z,25.60
2022-08-09T15:59:51.722Z,25.60
2022-08-09T16:02:19.437Z,25.70
2022-08-09T16:04:54.336Z,25.70
2022-08-09T16:07:21.382Z,25.70
2022-08-09T16:10:02.353Z,25.60
2022-08-09T16:12:32.916Z,25.70
2022-08-09T16:15:00.758Z,25.60
2022-08-09T16:17:28.838Z,25.60
2022-08-09T16:20:03.952Z,25.60
2022-08-09T16:22:32.403Z,25.50
2022-08-09T16:25:01.352Z,25.50
2022-08-09T16:27:29.848Z,25.50
2022-08-09T16:30:01.168Z,25.70
2022-08-09T16:32:53.194Z,25.90
2022-08-09T16:35:56.723Z,26.20
2022-08-09T16:38:08.573Z,26.30
2022-08-09T16:40:40.853Z,26.30
2022-08-09T16:43:08.771Z,26.30
2022-08-09T16:45:37.270Z,26.30
2022-08-09T16:48:39.805Z,26.10
2022-08-09T16:51:08.534Z,26.00
2022-08-09T16:54:09.102Z,26.20
2022-08-09T16:56:30.571Z,26.10
2022-08-09T16:58:59.177Z,25.90
2022-08-09T17:01:28.831Z,25.70
2022-08-09T17:04:01.228Z,25.40
2022-08-09T17:06:32.089Z,25.30
2022-08-09T17:09:17.536Z,25.10
2022-08-09T17:11:52.581Z,24.90
2022-08-09T17:14:27.059Z,24.90
2022-08-09T17:17:01.855Z,25.00
2022-08-09T17:20:05.914Z,25.00
2022-08-09T17:22:24.229Z,25.10
2022-08-09T17:25:03.753Z,25.10
2022-08-09T17:27:33.867Z,25.10
2022-08-09T17:30:06.748Z,24.90
2022-08-09T17:32:37.825Z,24.90
2022-08-09T17:35:11.453Z,24.90
2022-08-09T17:38:13.106Z,24.80
2022-08-09T17:40:33.396Z,24.70
2022-08-09T17:43:10.597Z,24.60
2022-08-09T17:46:03.653Z,24.50
2022-08-09T17:48:28.676Z,24.50
2022-08-09T17:51:01.723Z,24.60
2022-08-09T17:53:43.459Z,24.50
2022-08-09T17:56:20.496Z,24.50
2022-08-09T17:58:47.606Z,24.40
2022-08-09T18:01:22.572Z,24.30
2022-08-09T18:03:52.262Z,24.20
2022-08-09T18:06:30.671Z,24.00
2022-08-09T18:08:59.145Z,24.10
2022-08-09T18:11:26.149Z,24.20
2022-08-09T18:14:00.623Z,24.20
2022-08-09T18:16:30.926Z,24.30
2022-08-09T18:19:04.138Z,24.30
2022-08-09T18:21:46.493Z,24.30
2022-08-09T18:24:17.272Z,24.20
2022-08-09T18:26:46.972Z,24.20
2022-08-09T18:30:42.121Z,24.20
2022-08-09T18:32:07.407Z,24.20
2022-08-09T18:34:39.122Z,24.00
2022-08-09T18:37:10.158Z,23.90
2022-08-09T18:39:57.693Z,23.90
2022-08-09T18:42:28.196Z,23.90
2022-08-09T18:44:56.951Z,23.90
2022-08-09T18:47:27.640Z,23.80
2022-08-09T18:49:59.955Z,23.70
2022-08-09T18:52:35.393Z,23.70
2022-08-09T18:55:03.838Z,23.50
2022-08-09T18:57:38.599Z,23.40
2022-08-09T19:00:11.388Z,23.40
2022-08-09T19:02:44.182Z,23.30
2022-08-09T19:05:20.698Z,23.30
2022-08-09T19:08:03.650Z,23.20
2022-08-09T19:10:37.142Z,23.00
2022-08-09T19:13:19.861Z,23.00
2022-08-09T19:15:55.715Z,22.90
2022-08-09T19:18:33.404Z,22.90
2022-08-09T19:21:05.621Z,22.80
2022-08-09T19:24:32.987Z,22.80
2022-08-09T19:26:35.179Z,22.70
2022-08-09T19:29:09.667Z,22.50
2022-08-09T19:31:49.422Z,22.40
2022-08-09T19:34:22.976Z,22.40
2022-08-09T19:36:55.805Z,22.30
2022-08-09T19:39:43.842Z,22.20
2022-08-09T19:42:15.300Z,22.00
2022-08-09T19:44:49.323Z,21.90
2022-08-09T19:47:22.623Z,21.70
2022-08-09T19:50:08.467Z,21.50
2022-08-09T19:52:38.368Z,21.40
2022-08-09T19:55:25.716Z,21.30
2022-08-09T19:57:57.991Z,21.20
2022-08-09T20:00:25.098Z,21.10
2022-08-09T20:04:16.995Z,21.00
2022-08-09T20:05:46.874Z,20.80
2022-08-09T20:08:24.802Z,20.60
2022-08-09T20:11:02.518Z,20.50
2022-08-09T20:13:36.728Z,20.40
2022-08-09T20:16:35.315Z,20.40
2022-08-09T20:19:41.981Z,20.40
2022-08-09T20:21:55.140Z,20.30
2022-08-09T20:24:31.930Z,20.40
2022-08-09T20:27:02.759Z,20.40
2022-08-09T20:29:37.607Z,20.50
2022-08-09T20:32:31.396Z,20.40
2022-08-09T20:34:57.634Z,20.30
2022-08-09T20:37:24.856Z,20.20
2022-08-09T20:40:15.592Z,20.30
2022-08-09T20:42:38.740Z,20.30
2022-08-09T20:45:59.345Z,20.30
2022-08-09T20:47:55.121Z,20.30
2022-08-09T20:50:47.859Z,20.20
2022-08-09T20:53:34.960Z,20.10
2022-08-09T20:56:01.012Z,20.10
2022-08-09T20:58:32.760Z,19.90
2022-08-09T21:01:32.446Z,19.70
2022-08-09T21:05:49.191Z,19.70
2022-08-09T21:06:36.705Z,19.60
2022-08-09T21:09:11.671Z,19.40
2022-08-09T21:14:30.713Z,19.40
2022-08-09T21:16:59.203Z,19.40
2022-08-09T21:20:18.396Z,19.40
2022-08-09T21:22:36.214Z,19.20
2022-08-09T21:25:20.903Z,19.20
2022-08-09T21:27:52.577Z,19.20
2022-08-09T21:30:22.213Z,19.10
2022-08-09T21:32:50.465Z,19.10
2022-08-09T21:35:17.591Z,19.00
2022-08-09T21:37:58.589Z,19.00
2022-08-09T21:40:30.749Z,19.00
2022-08-09T21:43:00.731Z,18.90
2022-08-09T21:45:28.460Z,18.80
2022-08-09T21:47:57.996Z,18.90
2022-08-09T21:50:35.909Z,18.80
2022-08-09T21:53:22.395Z,18.70
2022-08-09T21:55:54.869Z,18.60
2022-08-09T21:58:29.192Z,18.40
2022-08-09T22:00:58.535Z,18.40
2022-08-09T22:03:26.180Z,18.40
2022-08-09T22:05:55.489Z,18.30
2022-08-09T22:08:28.154Z,18.20
2022-08-09T22:11:50.317Z,18.20
2022-08-09T22:13:43.900Z,18.20
2022-08-09T22:16:11.969Z,18.20
2022-08-09T22:18:54.554Z,18.20
2022-08-09T22:21:45.003Z,18.10
2022-08-09T22:24:16.912Z,18.10
2022-08-09T22:26:51.567Z,18.20
2022-08-09T22:29:19.643Z,18.20
2022-08-09T22:31:57.071Z,18.10
2022-08-09T22:34:26.840Z,18.00
2022-08-09T22:36:56.323Z,17.90
2022-08-09T22:39:55.979Z,17.90
2022-08-09T22:42:21.221Z,17.80
2022-08-09T22:45:00.445Z,17.70
2022-08-09T22:48:16.876Z,17.60
2022-08-09T22:50:28.157Z,17.50
2022-08-09T22:52:58.322Z,17.50
2022-08-09T22:55:39.303Z,17.50
2022-08-09T22:58:20.474Z,17.40
2022-08-09T23:01:00.696Z,17.40
2022-08-09T23:04:04.340Z,17.40
2022-08-09T23:06:30.063Z,17.50
2022-08-09T23:09:05.597Z,17.60
2022-08-09T23:11:32.767Z,17.50
2022-08-09T23:13:59.817Z,17.40
2022-08-09T23:16:26.909Z,17.10
2022-08-09T23:18:54.035Z,17.10
2022-08-09T23:21:25.282Z,17.20
2022-08-09T23:24:05.632Z,17.20
2022-08-09T23:26:36.872Z,17.10
2022-08-09T23:29:06.093Z,17.00
2022-08-09T23:31:33.575Z,17.00
2022-08-09T23:34:00.672Z,17.00
2022-08-09T23:36:29.908Z,16.80
2022-08-09T23:38:56.820Z,16.90
2022-08-09T23:41:28.552Z,16.80
2022-08-09T23:43:57.846Z,16.70
2022-08-09T23:46:24.920Z,16.80
2022-08-09T23:48:51.887Z,16.70
2022-08-09T23:51:18.856Z,16.70
2022-08-09T23:53:45.816Z,16.70
2022-08-09T23:56:16.589Z,16.70
2022-08-09T23:58:48.835Z,16.70
